sensor_id;sensor_type;location;lat;lon;timestamp;pressure;altitude;pressure_sealevel;temperature;humidity
73105;BME280;61296;50.526;30.792;2023-04-06T00:12:13;98779.59;;;7.97;91.25
73105;BME280;61296;50.526;30.792;2023-04-06T00:27:33;98725.16;;;7.51;96.59
73105;BME280;61296;50.526;30.792;2023-04-06T00:42:53;98763.47;;;7.51;100.00
73105;BME280;61296;50.526;30.792;2023-04-06T00:58:12;98806.72;;;7.76;100.00
73105;BME280;61296;50.526;30.792;2023-04-06T01:13:41;98708.66;;;7.11;100.00
73105;BME280;61296;50.526;30.792;2023-04-06T01:29:08;98761.94;;;7.58;100.00
73105;BME280;61296;50.526;30.792;2023-04-06T01:44:27;98781.03;;;7.88;100.00
73105;BME280;61296;50.526;30.792;2023-04-06T01:59:58;98867.47;;;8.22;100.00
73105;BME280;61296;50.526;30.792;2023-04-06T02:15:33;98719.97;;;7.43;100.00
73105;BME280;61296;50.526;30.792;2023-04-06T02:30:52;98804.53;;;7.89;100.00
73105;BME280;61296;50.526;30.792;2023-04-06T02:46:13;98733.34;;;7.18;100.00
73105;BME280;61296;50.526;30.792;2023-04-06T03:01:32;98823.22;;;7.49;100.00
73105;BME280;61296;50.526;30.792;2023-04-06T03:16:55;98781.31;;;7.12;100.00
73105;BME280;61296;50.526;30.792;2023-04-06T03:32:17;98640.53;;;6.08;100.00
73105;BME280;61296;50.526;30.792;2023-04-06T03:47:36;98705.56;;;6.82;100.00
73105;BME280;61296;50.526;30.792;2023-04-06T04:03:01;98726.25;;;7.13;100.00
73105;BME280;61296;50.526;30.792;2023-04-06T04:18:21;98687.19;;;7.13;100.00
73105;BME280;61296;50.526;30.792;2023-04-06T04:33:40;98730.00;;;7.65;100.00
73105;BME280;61296;50.526;30.792;2023-04-06T04:49:10;98784.97;;;7.90;100.00
73105;BME280;61296;50.526;30.792;2023-04-06T05:04:35;98739.56;;;7.82;100.00
73105;BME280;61296;50.526;30.792;2023-04-06T05:19:57;98862.78;;;8.63;100.00
73105;BME280;61296;50.526;30.792;2023-04-06T05:35:18;98687.16;;;7.84;100.00
73105;BME280;61296;50.526;30.792;2023-04-06T05:50:42;98806.16;;;8.82;97.48
73105;BME280;61296;50.526;30.792;2023-04-06T06:06:04;98877.50;;;9.47;95.96
73105;BME280;61296;50.526;30.792;2023-04-06T06:21:33;98754.63;;;9.12;95.23
73105;BME280;61296;50.526;30.792;2023-04-06T06:36:53;98822.47;;;10.20;84.76
73105;BME280;61296;50.526;30.792;2023-04-06T06:52:14;98782.47;;;10.26;83.89
73105;BME280;61296;50.526;30.792;2023-04-06T07:07:34;98896.03;;;10.77;83.86
73105;BME280;61296;50.526;30.792;2023-04-06T07:22:53;98828.00;;;10.24;84.13
73105;BME280;61296;50.526;30.792;2023-04-06T07:38:13;98823.69;;;10.37;85.00
73105;BME280;61296;50.526;30.792;2023-04-06T09:21:05;98766.75;;;10.84;89.28
73105;BME280;61296;50.526;30.792;2023-04-06T09:36:33;98917.41;;;10.03;100.00
73105;BME280;61296;50.526;30.792;2023-04-06T09:52:01;98916.81;;;9.66;100.00
73105;BME280;61296;50.526;30.792;2023-04-06T10:07:20;98968.28;;;9.76;100.00
73105;BME280;61296;50.526;30.792;2023-04-06T10:38:57;98784.00;;;8.53;100.00
73105;BME280;61296;50.526;30.792;2023-04-06T10:54:16;98970.63;;;9.77;100.00
73105;BME280;61296;50.526;30.792;2023-04-06T11:09:36;99015.81;;;9.87;100.00
73105;BME280;61296;50.526;30.792;2023-04-06T11:25:07;99011.44;;;9.79;100.00
73105;BME280;61296;50.526;30.792;2023-04-06T11:40:27;99011.00;;;9.70;100.00
73105;BME280;61296;50.526;30.792;2023-04-06T11:55:58;99012.56;;;9.71;100.00
73105;BME280;61296;50.526;30.792;2023-04-06T12:11:18;99031.53;;;9.90;100.00
73105;BME280;61296;50.526;30.792;2023-04-06T12:26:38;99009.78;;;9.64;100.00
73105;BME280;61296;50.526;30.792;2023-04-06T12:42:01;99017.59;;;9.62;100.00
73105;BME280;61296;50.526;30.792;2023-04-06T12:57:27;98975.50;;;9.43;100.00
73105;BME280;61296;50.526;30.792;2023-04-06T13:12:47;98951.88;;;9.28;100.00
73105;BME280;61296;50.526;30.792;2023-04-06T13:28:07;98862.56;;;8.83;100.00
73105;BME280;61296;50.526;30.792;2023-04-06T13:43:27;98845.75;;;8.84;100.00
73105;BME280;61296;50.526;30.792;2023-04-06T13:58:47;98976.09;;;9.74;100.00
73105;BME280;61296;50.526;30.792;2023-04-06T14:14:07;98854.16;;;9.09;100.00
73105;BME280;61296;50.526;30.792;2023-04-06T14:29:28;98957.00;;;9.92;100.00
73105;BME280;61296;50.526;30.792;2023-04-06T14:45:12;99036.97;;;10.49;100.00
73105;BME280;61296;50.526;30.792;2023-04-06T15:00:44;99044.47;;;10.55;100.00
73105;BME280;61296;50.526;30.792;2023-04-06T15:16:05;98972.75;;;10.09;100.00
73105;BME280;61296;50.526;30.792;2023-04-06T15:31:25;98914.13;;;9.73;100.00
73105;BME280;61296;50.526;30.792;2023-04-06T15:46:44;98898.44;;;9.77;100.00
73105;BME280;61296;50.526;30.792;2023-04-06T16:02:03;99061.41;;;10.72;100.00
73105;BME280;61296;50.526;30.792;2023-04-06T16:17:22;98966.19;;;10.24;100.00
73105;BME280;61296;50.526;30.792;2023-04-06T16:48:42;98976.34;;;10.20;100.00
73105;BME280;61296;50.526;30.792;2023-04-06T17:04:01;99021.59;;;10.33;100.00
73105;BME280;61296;50.526;30.792;2023-04-06T17:19:20;99094.63;;;10.34;98.93
73105;BME280;61296;50.526;30.792;2023-04-06T17:34:40;99126.13;;;9.96;99.51
73105;BME280;61296;50.526;30.792;2023-04-06T17:50:02;99109.31;;;9.57;100.00
73105;BME280;61296;50.526;30.792;2023-04-06T18:05:23;99088.09;;;9.10;100.00
73105;BME280;61296;50.526;30.792;2023-04-06T18:20:43;99176.16;;;9.35;100.00
73105;BME280;61296;50.526;30.792;2023-04-06T18:36:03;99196.28;;;9.12;100.00
73105;BME280;61296;50.526;30.792;2023-04-06T18:51:32;99119.72;;;8.36;100.00
73105;BME280;61296;50.526;30.792;2023-04-06T19:06:52;99077.47;;;7.85;100.00
73105;BME280;61296;50.526;30.792;2023-04-06T19:22:12;99137.25;;;8.05;100.00
73105;BME280;61296;50.526;30.792;2023-04-06T19:37:35;99114.75;;;7.70;100.00
73105;BME280;61296;50.526;30.792;2023-04-06T19:52:55;99199.91;;;8.10;100.00
73105;BME280;61296;50.526;30.792;2023-04-06T20:08:14;99164.16;;;7.54;99.68
73105;BME280;61296;50.526;30.792;2023-04-06T20:23:34;99227.94;;;7.58;97.54
73105;BME280;61296;50.526;30.792;2023-04-06T20:39:08;99233.94;;;7.25;96.72
73105;BME280;61296;50.526;30.792;2023-04-06T20:54:35;99256.84;;;6.82;91.80
73105;BME280;61296;50.526;30.792;2023-04-06T21:09:54;99162.16;;;6.03;93.78
73105;BME280;61296;50.526;30.792;2023-04-06T21:25:14;99207.63;;;6.27;93.74
73105;BME280;61296;50.526;30.792;2023-04-06T21:40:34;99353.91;;;6.91;92.28
73105;BME280;61296;50.526;30.792;2023-04-06T21:55:54;99282.94;;;6.28;93.19
73105;BME280;61296;50.526;30.792;2023-04-06T22:11:13;99325.63;;;6.21;92.05
73105;BME280;61296;50.526;30.792;2023-04-06T22:26:33;99213.22;;;5.28;89.31
73105;BME280;61296;50.526;30.792;2023-04-06T22:41:52;99331.94;;;5.93;90.34
73105;BME280;61296;50.526;30.792;2023-04-06T22:57:11;99245.00;;;5.36;90.86
73105;BME280;61296;50.526;30.792;2023-04-06T23:12:31;99413.59;;;5.98;91.40
73105;BME280;61296;50.526;30.792;2023-04-06T23:27:50;99315.72;;;5.16;91.17
73105;BME280;61296;50.526;30.792;2023-04-06T23:43:10;99349.78;;;5.10;88.24
73105;BME280;61296;50.526;30.792;2023-04-06T23:58:31;99251.78;;;4.37;88.14
